createdAt,value
2022-08-20T00:00:47.058Z,18.30
2022-08-20T00:03:25.606Z,18.34
2022-08-20T00:06:06.882Z,18.32
2022-08-20T00:08:42.945Z,18.33
2022-08-20T00:11:12.564Z,18.35
2022-08-20T00:13:43.203Z,18.32
2022-08-20T00:16:11.551Z,18.35
2022-08-20T00:18:39.807Z,18.34
2022-08-20T00:21:09.717Z,18.17
2022-08-20T00:23:42.894Z,18.16
2022-08-20T00:26:11.102Z,18.18
2022-08-20T00:28:38.937Z,18.29
2022-08-20T00:31:08.104Z,18.29
2022-08-20T00:33:35.598Z,18.27
2022-08-20T00:36:06.803Z,18.28
2022-08-20T00:38:34.603Z,18.26
2022-08-20T00:41:01.520Z,18.20
2022-08-20T00:43:34.250Z,18.20
2022-08-20T00:46:05.041Z,18.17
2022-08-20T00:48:36.176Z,18.19
2022-08-20T00:51:15.407Z,18.21
2022-08-20T00:53:44.135Z,18.26
2022-08-20T00:56:12.936Z,18.23
2022-08-20T00:58:42.624Z,18.28
2022-08-20T01:01:09.887Z,18.21
2022-08-20T01:03:36.995Z,18.15
2022-08-20T01:06:03.910Z,18.10
2022-08-20T01:08:30.503Z,18.14
2022-08-20T01:11:08.148Z,18.09
2022-08-20T01:13:37.817Z,18.07
2022-08-20T01:16:13.174Z,18.12
2022-08-20T01:18:40.395Z,18.14
2022-08-20T01:21:08.368Z,18.12
2022-08-20T01:23:34.770Z,18.09
2022-08-20T01:26:18.939Z,18.03
2022-08-20T01:28:50.608Z,18.05
2022-08-20T01:31:23.090Z,18.08
2022-08-20T01:33:50.788Z,18.11
2022-08-20T01:36:22.127Z,17.97
2022-08-20T01:38:53.108Z,18.00
2022-08-20T01:41:38.607Z,17.95
2022-08-20T01:44:05.656Z,17.92
2022-08-20T01:46:44.006Z,17.98
2022-08-20T01:49:34.554Z,18.01
2022-08-20T01:52:05.635Z,17.91
2022-08-20T01:54:33.785Z,17.95
2022-08-20T01:57:10.698Z,17.97
2022-08-20T01:59:37.582Z,18.05
2022-08-20T02:02:07.000Z,18.09
2022-08-20T02:04:34.279Z,18.10
2022-08-20T02:07:04.225Z,18.12
2022-08-20T02:09:34.335Z,17.98
2022-08-20T02:12:02.936Z,18.03
2022-08-20T02:14:30.408Z,18.07
2022-08-20T02:16:58.534Z,18.08
2022-08-20T02:19:38.277Z,18.11
2022-08-20T02:22:16.071Z,18.11
2022-08-20T02:24:43.917Z,18.24
2022-08-20T02:27:10.677Z,18.20
2022-08-20T02:29:37.335Z,18.16
2022-08-20T02:32:32.147Z,18.09
2022-08-20T02:34:52.752Z,18.07
2022-08-20T02:37:19.322Z,18.10
2022-08-20T02:39:46.839Z,18.03
2022-08-20T02:42:13.404Z,18.06
2022-08-20T02:44:40.305Z,18.03
2022-08-20T02:47:07.462Z,17.97
2022-08-20T02:49:34.862Z,17.99
2022-08-20T02:52:01.339Z,17.98
2022-08-20T02:54:29.211Z,18.02
2022-08-20T02:56:55.892Z,18.06
2022-08-20T02:59:22.489Z,18.01
2022-08-20T03:01:59.329Z,17.98
2022-08-20T03:04:29.232Z,17.92
2022-08-20T03:06:56.310Z,17.83
2022-08-20T03:09:22.935Z,17.83
2022-08-20T03:11:49.405Z,17.86
2022-08-20T03:14:15.886Z,17.92
2022-08-20T03:16:43.068Z,17.92
2022-08-20T03:19:09.601Z,17.97
2022-08-20T03:21:36.070Z,18.07
2022-08-20T03:24:02.718Z,18.14
2022-08-20T03:26:29.333Z,18.17
2022-08-20T03:28:55.835Z,18.20
2022-08-20T03:31:22.553Z,18.26
2022-08-20T03:33:53.461Z,18.31
2022-08-20T03:36:27.704Z,18.21
2022-08-20T03:38:57.434Z,18.13
2022-08-20T03:41:24.088Z,18.06
2022-08-20T03:43:50.968Z,18.07
2022-08-20T03:46:22.080Z,18.09
2022-08-20T03:48:56.649Z,18.01
2022-08-20T03:51:28.988Z,17.97
2022-08-20T03:53:55.813Z,17.92
2022-08-20T03:56:22.308Z,17.95
2022-08-20T03:58:48.841Z,18.03
2022-08-20T04:01:44.196Z,18.05
2022-08-20T04:04:02.285Z,17.98
2022-08-20T04:06:30.390Z,18.04
2022-08-20T04:08:57.334Z,18.09
2022-08-20T04:11:24.331Z,18.10
2022-08-20T04:13:51.007Z,18.09
2022-08-20T04:16:18.266Z,18.12
2022-08-20T04:18:57.252Z,18.11
2022-08-20T04:21:32.727Z,18.10
2022-08-20T04:23:59.940Z,18.07
2022-08-20T04:26:26.808Z,18.02
2022-08-20T04:28:55.383Z,18.02
2022-08-20T04:31:25.411Z,18.06
2022-08-20T04:33:52.636Z,18.19
2022-08-20T04:36:19.286Z,18.18
2022-08-20T04:38:48.077Z,18.17
2022-08-20T04:41:22.933Z,18.07
2022-08-20T04:43:54.545Z,18.10
2022-08-20T04:46:25.770Z,18.20
2022-08-20T04:48:52.866Z,18.21
2022-08-20T04:51:23.104Z,18.13
2022-08-20T04:53:53.245Z,18.06
2022-08-20T04:56:23.872Z,18.00
2022-08-20T04:58:52.290Z,18.09
2022-08-20T05:01:19.151Z,18.09
2022-08-20T05:03:47.732Z,18.09
2022-08-20T05:06:18.040Z,18.03
2022-08-20T05:08:45.405Z,18.10
2022-08-20T05:11:32.961Z,18.16
2022-08-20T05:13:59.517Z,18.06
2022-08-20T05:16:26.174Z,18.09
2022-08-20T05:18:53.052Z,18.12
2022-08-20T05:21:21.071Z,18.16
2022-08-20T05:23:49.593Z,18.13
2022-08-20T05:26:17.298Z,18.12
2022-08-20T05:28:57.435Z,18.18
2022-08-20T05:31:30.893Z,18.27
2022-08-20T05:34:11.903Z,18.13
2022-08-20T05:36:44.018Z,18.15
2022-08-20T05:39:11.177Z,18.23
2022-08-20T05:41:38.822Z,18.34
2022-08-20T05:44:10.038Z,18.16
2022-08-20T05:46:40.910Z,18.20
2022-08-20T05:49:13.655Z,18.34
2022-08-20T05:51:40.550Z,18.40
2022-08-20T05:54:07.555Z,18.49
2022-08-20T05:56:35.016Z,18.58
2022-08-20T05:59:04.233Z,18.52
2022-08-20T06:01:32.729Z,18.22
2022-08-20T06:04:17.957Z,18.26
2022-08-20T06:06:47.042Z,18.36
2022-08-20T06:09:31.346Z,18.52
2022-08-20T06:12:05.037Z,18.60
2022-08-20T06:14:32.787Z,18.63
2022-08-20T06:17:05.369Z,18.75
2022-08-20T06:19:37.547Z,18.73
2022-08-20T06:22:18.589Z,18.78
2022-08-20T06:24:53.070Z,18.85
2022-08-20T06:27:20.678Z,18.90
2022-08-20T06:29:49.073Z,18.99
2022-08-20T06:32:16.656Z,18.96
2022-08-20T06:34:50.682Z,19.03
2022-08-20T06:40:22.938Z,19.07
2022-08-20T06:42:51.621Z,19.44
2022-08-20T06:45:24.535Z,19.71
2022-08-20T06:47:53.446Z,20.00
2022-08-20T06:50:24.928Z,20.40
2022-08-20T06:52:53.312Z,21.16
2022-08-20T06:55:21.661Z,21.93
2022-08-20T06:58:00.338Z,21.70
2022-08-20T07:00:28.739Z,21.39
2022-08-20T07:02:56.684Z,21.47
2022-08-20T07:05:24.637Z,21.43
2022-08-20T07:07:51.600Z,21.80
2022-08-20T07:10:19.858Z,21.71
2022-08-20T07:12:47.202Z,22.08
2022-08-20T07:15:14.821Z,22.28
2022-08-20T07:17:42.352Z,21.44
2022-08-20T07:20:15.321Z,20.69
2022-08-20T07:22:42.467Z,21.25
2022-08-20T07:25:12.666Z,21.77
2022-08-20T07:27:39.742Z,21.88
2022-08-20T07:30:27.477Z,21.95
2022-08-20T07:32:54.192Z,22.90
2022-08-20T07:35:21.388Z,23.58
2022-08-20T07:37:51.789Z,23.79
2022-08-20T07:40:28.225Z,23.46
2022-08-20T07:43:00.846Z,23.46
2022-08-20T07:45:27.880Z,23.25
2022-08-20T07:47:55.818Z,22.69
2022-08-20T07:50:25.770Z,22.59
2022-08-20T07:52:52.990Z,22.52
2022-08-20T07:55:21.188Z,22.61
2022-08-20T07:57:50.134Z,22.38
2022-08-20T08:00:19.768Z,22.24
2022-08-20T08:02:46.717Z,21.96
2022-08-20T08:05:13.847Z,21.87
2022-08-20T08:07:42.324Z,21.92
2022-08-20T08:10:15.232Z,21.94
2022-08-20T08:12:47.676Z,21.78
2022-08-20T08:15:18.778Z,21.53
2022-08-20T08:17:48.682Z,21.46
2022-08-20T08:20:17.179Z,21.57
2022-08-20T08:22:44.071Z,22.03
2022-08-20T08:25:12.941Z,21.98
2022-08-20T08:27:40.561Z,22.06
2022-08-20T08:30:09.010Z,22.19
2022-08-20T08:32:37.409Z,22.24
2022-08-20T08:35:08.955Z,22.03
2022-08-20T08:37:37.688Z,21.92
2022-08-20T08:40:05.593Z,21.76
2022-08-20T08:42:31.981Z,21.76
2022-08-20T08:44:59.687Z,21.83
2022-08-20T08:47:34.741Z,21.87
2022-08-20T08:50:02.793Z,21.92
2022-08-20T08:52:33.407Z,22.05
2022-08-20T08:55:03.790Z,22.11
2022-08-20T08:57:30.791Z,21.64
2022-08-20T09:00:04.790Z,21.43
2022-08-20T09:02:34.158Z,21.45
2022-08-20T09:05:02.647Z,21.60
2022-08-20T09:07:32.726Z,21.85
2022-08-20T09:10:00.213Z,22.02
2022-08-20T09:12:28.038Z,21.67
2022-08-20T09:14:54.907Z,21.68
2022-08-20T09:17:23.439Z,21.79
2022-08-20T09:19:52.194Z,22.00
2022-08-20T09:22:21.771Z,22.23
2022-08-20T09:24:49.945Z,22.00
2022-08-20T09:27:16.818Z,21.99
2022-08-20T09:29:44.050Z,22.31
2022-08-20T09:32:18.900Z,22.70
2022-08-20T09:34:51.853Z,22.73
2022-08-20T09:37:19.231Z,22.98
2022-08-20T09:39:45.896Z,22.93
2022-08-20T09:42:17.073Z,22.96
2022-08-20T09:44:44.421Z,23.13
2022-08-20T09:47:11.298Z,23.63
2022-08-20T09:49:38.502Z,24.29
2022-08-20T09:52:08.623Z,24.58
2022-08-20T09:54:36.230Z,24.93
2022-08-20T09:57:06.209Z,24.03
2022-08-20T09:59:34.583Z,25.03
2022-08-20T10:02:01.217Z,25.33
2022-08-20T10:04:27.978Z,25.66
2022-08-20T10:06:57.900Z,24.59
2022-08-20T10:09:24.697Z,24.31
2022-08-20T10:11:51.969Z,24.50
2022-08-20T10:14:18.695Z,24.11
2022-08-20T10:16:45.440Z,23.74
2022-08-20T10:19:11.949Z,23.64
2022-08-20T10:21:39.216Z,23.62
2022-08-20T10:24:06.385Z,23.32
2022-08-20T10:26:33.836Z,22.92
2022-08-20T10:29:00.392Z,22.87
2022-08-20T10:31:27.018Z,23.08
2022-08-20T10:33:53.562Z,23.13
2022-08-20T10:36:20.063Z,23.61
2022-08-20T10:38:49.821Z,23.89
2022-08-20T10:41:17.275Z,24.14
2022-08-20T10:43:44.234Z,24.16
2022-08-20T10:46:11.088Z,24.43
2022-08-20T10:48:38.554Z,24.83
2022-08-20T10:51:06.079Z,24.67
2022-08-20T10:53:33.193Z,24.57
2022-08-20T10:56:00.032Z,24.67
2022-08-20T10:58:39.743Z,24.67
2022-08-20T11:01:08.595Z,24.84
2022-08-20T11:03:36.009Z,24.95
2022-08-20T11:06:03.552Z,24.84
2022-08-20T11:08:34.182Z,25.14
2022-08-20T11:11:03.705Z,24.91
2022-08-20T11:13:30.531Z,24.70
2022-08-20T11:15:57.117Z,25.49
2022-08-20T11:18:23.690Z,25.39
2022-08-20T11:20:50.710Z,25.36
2022-08-20T11:23:17.480Z,25.77
2022-08-20T11:25:44.219Z,25.32
2022-08-20T11:28:15.306Z,25.47
2022-08-20T11:30:42.019Z,25.51
2022-08-20T11:33:08.731Z,25.49
2022-08-20T11:35:49.246Z,25.69
2022-08-20T11:38:17.597Z,25.38
2022-08-20T11:40:44.390Z,25.37
2022-08-20T11:43:16.243Z,25.31
2022-08-20T11:45:46.331Z,25.12
2022-08-20T11:48:12.971Z,25.10
2022-08-20T11:50:39.565Z,24.63
2022-08-20T11:53:09.105Z,24.61
2022-08-20T11:55:37.083Z,24.51
2022-08-20T11:58:03.730Z,24.56
2022-08-20T12:00:32.816Z,24.44
2022-08-20T12:03:05.537Z,24.76
2022-08-20T12:05:37.941Z,25.00
2022-08-20T12:08:05.762Z,25.51
2022-08-20T12:10:32.873Z,25.42
2022-08-20T12:12:59.913Z,25.36
2022-08-20T12:15:29.296Z,25.69
2022-08-20T12:17:56.123Z,25.66
2022-08-20T12:20:24.150Z,25.50
2022-08-20T12:22:51.089Z,25.38
2022-08-20T12:25:18.172Z,25.36
2022-08-20T12:27:46.792Z,25.19
2022-08-20T12:30:19.950Z,25.33
2022-08-20T12:32:50.312Z,25.76
2022-08-20T12:35:18.701Z,25.31
2022-08-20T12:37:47.057Z,24.73
2022-08-20T12:40:24.557Z,24.73
2022-08-20T12:42:59.787Z,24.57
2022-08-20T12:45:26.606Z,24.67
2022-08-20T12:47:53.221Z,24.58
2022-08-20T12:50:22.994Z,24.50
2022-08-20T12:52:50.742Z,24.41
2022-08-20T12:55:19.459Z,24.56
2022-08-20T12:57:52.679Z,24.49
2022-08-20T13:00:32.502Z,24.48
2022-08-20T13:03:02.264Z,24.36
2022-08-20T13:05:29.972Z,24.39
2022-08-20T13:07:57.172Z,24.29
2022-08-20T13:10:28.049Z,24.23
2022-08-20T13:12:54.913Z,24.23
2022-08-20T13:15:22.720Z,24.19
2022-08-20T13:17:57.358Z,24.34
2022-08-20T13:20:25.877Z,24.53
2022-08-20T13:22:58.703Z,24.41
2022-08-20T13:25:26.127Z,24.47
2022-08-20T13:28:01.076Z,24.67
2022-08-20T13:30:27.952Z,24.83
2022-08-20T13:32:54.629Z,24.83
2022-08-20T13:35:21.790Z,25.25
2022-08-20T13:37:49.396Z,25.22
2022-08-20T13:40:16.967Z,25.51
2022-08-20T13:42:43.750Z,25.46
2022-08-20T13:45:10.947Z,25.97
2022-08-20T13:47:39.535Z,26.29
2022-08-20T13:50:15.894Z,26.38
2022-08-20T13:52:43.681Z,26.69
2022-08-20T13:55:14.052Z,27.01
2022-08-20T13:57:42.520Z,27.08
2022-08-20T14:00:13.470Z,26.88
2022-08-20T14:02:41.682Z,26.65
2022-08-20T14:05:09.077Z,26.49
2022-08-20T14:07:37.844Z,26.59
2022-08-20T14:10:11.756Z,26.02
2022-08-20T14:12:38.790Z,25.36
2022-08-20T14:15:07.203Z,25.38
2022-08-20T14:17:37.008Z,25.70
2022-08-20T14:20:16.706Z,25.96
2022-08-20T14:22:44.443Z,26.02
2022-08-20T14:25:14.034Z,25.81
2022-08-20T14:27:41.982Z,26.09
2022-08-20T14:30:13.314Z,25.93
2022-08-20T14:32:43.789Z,26.16
2022-08-20T14:35:11.360Z,25.85
2022-08-20T14:37:41.958Z,25.86
2022-08-20T14:40:12.833Z,25.97
2022-08-20T14:42:39.982Z,26.12
2022-08-20T14:45:09.502Z,26.00
2022-08-20T14:47:40.277Z,25.63
2022-08-20T14:50:11.510Z,26.13
2022-08-20T14:52:39.218Z,26.27
2022-08-20T14:55:10.453Z,26.49
2022-08-20T14:57:39.674Z,26.47
2022-08-20T15:00:12.139Z,25.99
2022-08-20T15:02:39.708Z,26.49
2022-08-20T15:05:08.355Z,26.67
2022-08-20T15:07:39.138Z,26.92
2022-08-20T15:10:14.338Z,26.52
2022-08-20T15:12:43.037Z,26.25
2022-08-20T15:15:14.114Z,26.11
2022-08-20T15:17:49.995Z,25.93
2022-08-20T15:20:21.219Z,26.09
2022-08-20T15:22:48.920Z,26.17
2022-08-20T15:25:19.885Z,26.22
2022-08-20T15:27:47.647Z,26.23
2022-08-20T15:30:20.579Z,25.54
2022-08-20T15:32:51.421Z,25.16
2022-08-20T15:35:22.144Z,25.32
2022-08-20T15:37:54.697Z,25.31
2022-08-20T15:40:27.851Z,25.07
2022-08-20T15:42:55.943Z,24.87
2022-08-20T15:45:22.956Z,24.24
2022-08-20T15:47:55.705Z,23.82
2022-08-20T15:50:37.959Z,23.43
2022-08-20T15:53:12.232Z,23.27
2022-08-20T15:55:47.928Z,22.98
2022-08-20T15:58:59.235Z,22.58
2022-08-20T16:01:42.804Z,22.51
2022-08-20T16:04:25.101Z,22.53
2022-08-20T16:06:57.378Z,22.30
2022-08-20T16:18:55.765Z,22.28
2022-08-20T16:21:37.747Z,22.38
2022-08-20T16:24:15.124Z,22.29
2022-08-20T16:27:04.466Z,22.07
2022-08-20T16:29:55.018Z,22.10
2022-08-20T16:33:05.635Z,22.16
2022-08-20T16:36:11.352Z,22.13
2022-08-20T16:42:05.770Z,21.76
2022-08-20T16:47:38.013Z,21.95
2022-08-20T16:50:17.446Z,21.91
2022-08-20T16:52:49.801Z,22.33
2022-08-20T16:55:21.979Z,22.61
2022-08-20T16:57:55.137Z,22.52
2022-08-20T17:00:33.542Z,22.48
2022-08-20T17:08:57.665Z,22.30
2022-08-20T17:11:32.114Z,22.25
2022-08-20T17:14:19.027Z,22.61
2022-08-20T17:16:51.456Z,22.82
2022-08-20T17:19:30.435Z,22.77
2022-08-20T17:22:09.807Z,22.40
2022-08-20T17:24:38.744Z,22.47
2022-08-20T17:27:23.026Z,22.48
2022-08-20T17:29:53.749Z,22.67
2022-08-20T17:32:30.007Z,22.68
2022-08-20T17:35:02.424Z,22.62
2022-08-20T17:37:36.296Z,22.57
2022-08-20T17:40:32.095Z,22.39
2022-08-20T17:43:08.577Z,22.60
2022-08-20T17:45:47.121Z,22.56
2022-08-20T17:48:17.889Z,22.51
2022-08-20T17:50:45.083Z,22.30
2022-08-20T17:53:14.980Z,22.40
2022-08-20T17:55:44.864Z,22.43
2022-08-20T17:58:20.255Z,22.35
2022-08-20T18:00:49.449Z,22.18
2022-08-20T18:03:20.727Z,22.21
2022-08-20T18:06:18.409Z,22.04
2022-08-20T18:09:26.052Z,21.92
2022-08-20T18:12:03.839Z,21.68
2022-08-20T18:14:58.055Z,21.64
2022-08-20T18:17:28.849Z,21.60
2022-08-20T18:20:21.866Z,21.47
2022-08-20T18:22:58.045Z,21.59
2022-08-20T18:25:37.028Z,21.62
2022-08-20T18:28:19.558Z,21.44
2022-08-20T18:31:06.990Z,21.42
2022-08-20T18:33:45.871Z,21.50
2022-08-20T18:36:40.728Z,21.43
2022-08-20T18:39:27.512Z,21.44
2022-08-20T18:42:03.395Z,21.04
2022-08-20T18:44:49.179Z,20.76
2022-08-20T18:47:50.346Z,20.52
2022-08-20T18:50:43.751Z,20.52
2022-08-20T18:53:34.500Z,20.54
2022-08-20T18:56:13.041Z,20.58
2022-08-20T18:59:01.233Z,20.61
2022-08-20T19:01:29.438Z,20.60
2022-08-20T19:03:59.047Z,20.79
2022-08-20T19:06:38.979Z,20.48
2022-08-20T19:09:30.890Z,20.31
2022-08-20T19:12:20.162Z,20.13
2022-08-20T19:14:59.626Z,20.12
2022-08-20T19:18:01.327Z,20.12
2022-08-20T19:20:33.242Z,20.09
2022-08-20T19:23:25.748Z,19.98
2022-08-20T19:26:00.281Z,19.84
2022-08-20T19:28:35.942Z,19.72
2022-08-20T19:31:17.155Z,19.75
2022-08-20T19:33:46.970Z,19.91
2022-08-20T19:36:22.173Z,19.85
2022-08-20T19:38:53.754Z,19.72
2022-08-20T19:41:30.943Z,19.73
2022-08-20T19:44:04.383Z,19.84
2022-08-20T19:46:39.257Z,19.80
2022-08-20T19:49:15.327Z,19.77
2022-08-20T19:52:03.861Z,20.01
2022-08-20T19:54:33.698Z,20.05
2022-08-20T19:57:07.057Z,20.13
2022-08-20T19:59:34.803Z,19.85
2022-08-20T20:02:20.284Z,19.60
2022-08-20T20:04:54.816Z,19.53
2022-08-20T20:07:33.117Z,19.53
2022-08-20T20:10:00.783Z,19.51
2022-08-20T20:12:33.481Z,19.59
2022-08-20T20:15:18.509Z,19.67
2022-08-20T20:17:45.704Z,19.62
2022-08-20T20:20:23.811Z,19.45
2022-08-20T20:23:05.902Z,19.45
2022-08-20T20:25:42.369Z,19.57
2022-08-20T20:28:20.658Z,19.73
2022-08-20T20:30:48.560Z,19.56
2022-08-20T20:33:23.514Z,19.48
2022-08-20T20:36:06.740Z,19.58
2022-08-20T20:38:34.682Z,19.68
2022-08-20T20:41:07.112Z,19.82
2022-08-20T20:43:54.043Z,19.87
2022-08-20T20:46:28.120Z,19.94
2022-08-20T20:49:09.984Z,19.84
2022-08-20T20:51:42.001Z,19.69
2022-08-20T20:54:33.767Z,19.72
2022-08-20T20:57:06.554Z,19.74
2022-08-20T20:59:35.790Z,19.80
2022-08-20T21:02:04.621Z,19.72
2022-08-20T21:04:31.537Z,19.64
2022-08-20T21:07:06.142Z,19.58
2022-08-20T21:09:41.208Z,19.51
2022-08-20T21:12:14.728Z,19.47
2022-08-20T21:14:43.984Z,19.36
2022-08-20T21:17:16.664Z,19.27
2022-08-20T21:19:45.141Z,19.35
2022-08-20T21:22:13.054Z,19.25
2022-08-20T21:24:39.908Z,19.16
2022-08-20T21:27:12.615Z,19.02
2022-08-20T21:29:39.726Z,18.82
2022-08-20T21:32:06.828Z,18.80
2022-08-20T21:34:34.845Z,18.82
2022-08-20T21:37:04.190Z,18.89
2022-08-20T21:39:31.492Z,18.88
2022-08-20T21:42:01.260Z,18.94
2022-08-20T21:44:30.116Z,18.90
2022-08-20T21:47:06.166Z,18.89
2022-08-20T21:49:33.822Z,19.12
2022-08-20T21:52:02.113Z,19.09
2022-08-20T21:54:29.095Z,18.89
2022-08-20T21:57:08.180Z,18.77
2022-08-20T21:59:38.389Z,18.65
2022-08-20T22:02:07.056Z,18.62
2022-08-20T22:04:35.746Z,18.79
2022-08-20T22:07:04.207Z,18.89
2022-08-20T22:09:33.040Z,18.92
2022-08-20T22:12:04.046Z,18.77
2022-08-20T22:14:31.585Z,18.79
2022-08-20T22:16:59.120Z,18.85
2022-08-20T22:19:26.172Z,18.86
2022-08-20T22:22:04.242Z,18.89
2022-08-20T22:24:31.372Z,18.75
2022-08-20T22:26:58.230Z,18.65
2022-08-20T22:29:25.506Z,18.47
2022-08-20T22:31:52.446Z,18.27
2022-08-20T22:34:22.005Z,18.20
2022-08-20T22:36:49.485Z,18.20
2022-08-20T22:39:16.349Z,18.23
2022-08-20T22:41:43.336Z,18.37
2022-08-20T22:44:10.417Z,18.28
2022-08-20T22:46:47.578Z,18.14
2022-08-20T22:49:25.536Z,17.99
2022-08-20T22:51:53.342Z,17.95
2022-08-20T22:54:28.099Z,18.07
2022-08-20T22:56:55.534Z,18.07
2022-08-20T22:59:26.760Z,18.05
2022-08-20T23:01:54.283Z,18.16
2022-08-20T23:04:32.749Z,18.31
2022-08-20T23:07:04.551Z,18.19
2022-08-20T23:09:34.226Z,18.09
2022-08-20T23:12:07.964Z,18.11
2022-08-20T23:14:34.911Z,18.09
2022-08-20T23:17:15.310Z,18.12
2022-08-20T23:19:42.734Z,18.07
2022-08-20T23:22:09.784Z,18.15
2022-08-20T23:24:37.108Z,18.24
2022-08-20T23:27:07.667Z,18.27
2022-08-20T23:29:35.838Z,18.31
2022-08-20T23:32:05.621Z,18.19
2022-08-20T23:34:38.440Z,18.15
2022-08-20T23:37:09.477Z,17.98
2022-08-20T23:39:37.742Z,17.92
2022-08-20T23:42:05.057Z,17.88
2022-08-20T23:44:32.043Z,17.87
2022-08-20T23:47:04.004Z,17.91
2022-08-20T23:49:32.405Z,17.96
2022-08-20T23:52:00.778Z,18.07
2022-08-20T23:54:34.266Z,18.14
2022-08-20T23:57:08.213Z,18.03
2022-08-20T23:59:36.069Z,17.99
